sensor_id;sensor_type;location;lat;lon;timestamp;temperature;humidity
8422;DHT22;4248;48.196;10.924;2024-03-06T00:00:41;7.20;54.10
8422;DHT22;4248;48.196;10.924;2024-03-06T00:03:06;7.30;53.90
8422;DHT22;4248;48.196;10.924;2024-03-06T00:05:32;7.30;53.90
8422;DHT22;4248;48.196;10.924;2024-03-06T00:07:57;7.30;53.80
8422;DHT22;4248;48.196;10.924;2024-03-06T00:10:23;7.30;53.90
8422;DHT22;4248;48.196;10.924;2024-03-06T00:12:48;7.30;54.20
8422;DHT22;4248;48.196;10.924;2024-03-06T00:15:14;7.30;54.20
8422;DHT22;4248;48.196;10.924;2024-03-06T00:17:40;7.30;54.20
8422;DHT22;4248;48.196;10.924;2024-03-06T00:20:06;7.30;54.30
8422;DHT22;4248;48.196;10.924;2024-03-06T00:22:32;7.30;54.10
8422;DHT22;4248;48.196;10.924;2024-03-06T00:24:58;7.30;54.20
8422;DHT22;4248;48.196;10.924;2024-03-06T00:27:23;7.20;54.30
8422;DHT22;4248;48.196;10.924;2024-03-06T00:29:49;7.20;54.60
8422;DHT22;4248;48.196;10.924;2024-03-06T00:32:14;7.10;54.80
8422;DHT22;4248;48.196;10.924;2024-03-06T00:34:40;7.10;55.20
8422;DHT22;4248;48.196;10.924;2024-03-06T00:37:05;7.10;55.30
8422;DHT22;4248;48.196;10.924;2024-03-06T00:39:31;7.10;55.20
8422;DHT22;4248;48.196;10.924;2024-03-06T00:41:56;7.20;55.00
8422;DHT22;4248;48.196;10.924;2024-03-06T00:44:22;7.30;54.80
8422;DHT22;4248;48.196;10.924;2024-03-06T00:46:47;7.40;54.40
8422;DHT22;4248;48.196;10.924;2024-03-06T00:49:14;7.40;54.30
8422;DHT22;4248;48.196;10.924;2024-03-06T00:51:39;7.20;54.50
8422;DHT22;4248;48.196;10.924;2024-03-06T00:54:05;7.20;55.20
8422;DHT22;4248;48.196;10.924;2024-03-06T00:56:30;7.10;55.70
8422;DHT22;4248;48.196;10.924;2024-03-06T00:58:56;7.00;56.10
8422;DHT22;4248;48.196;10.924;2024-03-06T01:01:22;7.10;56.20
8422;DHT22;4248;48.196;10.924;2024-03-06T01:03:48;7.10;56.10
8422;DHT22;4248;48.196;10.924;2024-03-06T01:06:14;7.00;56.20
8422;DHT22;4248;48.196;10.924;2024-03-06T01:08:39;6.90;56.90
8422;DHT22;4248;48.196;10.924;2024-03-06T01:11:06;6.90;57.20
8422;DHT22;4248;48.196;10.924;2024-03-06T01:13:32;6.80;57.70
8422;DHT22;4248;48.196;10.924;2024-03-06T01:15:57;6.80;58.10
8422;DHT22;4248;48.196;10.924;2024-03-06T01:18:23;6.80;58.30
8422;DHT22;4248;48.196;10.924;2024-03-06T01:20:48;6.80;58.70
8422;DHT22;4248;48.196;10.924;2024-03-06T01:23:14;6.80;59.00
8422;DHT22;4248;48.196;10.924;2024-03-06T01:25:39;6.80;59.10
8422;DHT22;4248;48.196;10.924;2024-03-06T01:28:05;6.70;59.30
8422;DHT22;4248;48.196;10.924;2024-03-06T01:30:31;6.70;59.20
8422;DHT22;4248;48.196;10.924;2024-03-06T01:32:56;6.80;59.20
8422;DHT22;4248;48.196;10.924;2024-03-06T01:35:23;6.80;59.50
8422;DHT22;4248;48.196;10.924;2024-03-06T01:37:49;6.70;60.00
8422;DHT22;4248;48.196;10.924;2024-03-06T01:40:14;6.60;60.10
8422;DHT22;4248;48.196;10.924;2024-03-06T01:42:40;6.60;60.20
8422;DHT22;4248;48.196;10.924;2024-03-06T01:45:06;6.70;60.40
8422;DHT22;4248;48.196;10.924;2024-03-06T01:47:32;6.70;60.40
8422;DHT22;4248;48.196;10.924;2024-03-06T01:49:58;6.70;60.40
8422;DHT22;4248;48.196;10.924;2024-03-06T01:52:24;6.70;60.30
8422;DHT22;4248;48.196;10.924;2024-03-06T01:54:50;6.70;60.10
8422;DHT22;4248;48.196;10.924;2024-03-06T01:57:17;6.70;60.30
8422;DHT22;4248;48.196;10.924;2024-03-06T01:59:44;6.60;60.50
8422;DHT22;4248;48.196;10.924;2024-03-06T02:02:10;6.50;61.30
8422;DHT22;4248;48.196;10.924;2024-03-06T02:04:37;6.50;62.10
8422;DHT22;4248;48.196;10.924;2024-03-06T02:07:03;6.40;62.30
8422;DHT22;4248;48.196;10.924;2024-03-06T02:09:29;6.40;62.50
8422;DHT22;4248;48.196;10.924;2024-03-06T02:11:54;6.40;62.40
8422;DHT22;4248;48.196;10.924;2024-03-06T02:14:20;6.30;62.50
8422;DHT22;4248;48.196;10.924;2024-03-06T02:16:45;6.30;62.90
8422;DHT22;4248;48.196;10.924;2024-03-06T02:19:11;6.40;62.90
8422;DHT22;4248;48.196;10.924;2024-03-06T02:21:36;6.30;62.80
8422;DHT22;4248;48.196;10.924;2024-03-06T02:24:03;6.30;63.00
8422;DHT22;4248;48.196;10.924;2024-03-06T02:26:28;6.30;63.20
8422;DHT22;4248;48.196;10.924;2024-03-06T02:28:55;6.30;63.40
8422;DHT22;4248;48.196;10.924;2024-03-06T02:31:22;6.30;63.80
8422;DHT22;4248;48.196;10.924;2024-03-06T02:33:49;6.20;64.00
8422;DHT22;4248;48.196;10.924;2024-03-06T02:36:15;6.20;64.00
8422;DHT22;4248;48.196;10.924;2024-03-06T02:38:44;6.20;63.90
8422;DHT22;4248;48.196;10.924;2024-03-06T02:41:10;6.30;63.80
8422;DHT22;4248;48.196;10.924;2024-03-06T02:43:36;6.30;63.70
8422;DHT22;4248;48.196;10.924;2024-03-06T02:46:02;6.30;63.80
8422;DHT22;4248;48.196;10.924;2024-03-06T02:48:27;6.20;64.00
8422;DHT22;4248;48.196;10.924;2024-03-06T02:50:53;6.30;64.10
8422;DHT22;4248;48.196;10.924;2024-03-06T02:53:18;6.30;64.10
8422;DHT22;4248;48.196;10.924;2024-03-06T02:55:44;6.20;64.10
8422;DHT22;4248;48.196;10.924;2024-03-06T02:58:10;6.20;64.10
8422;DHT22;4248;48.196;10.924;2024-03-06T03:00:35;6.20;64.10
8422;DHT22;4248;48.196;10.924;2024-03-06T03:03:01;6.20;64.30
8422;DHT22;4248;48.196;10.924;2024-03-06T03:05:26;6.20;64.30
8422;DHT22;4248;48.196;10.924;2024-03-06T03:07:52;6.10;64.40
8422;DHT22;4248;48.196;10.924;2024-03-06T03:10:18;6.10;64.50
8422;DHT22;4248;48.196;10.924;2024-03-06T03:12:45;6.10;64.70
8422;DHT22;4248;48.196;10.924;2024-03-06T03:15:10;6.10;64.40
8422;DHT22;4248;48.196;10.924;2024-03-06T03:17:36;6.20;64.40
8422;DHT22;4248;48.196;10.924;2024-03-06T03:20:03;6.20;64.10
8422;DHT22;4248;48.196;10.924;2024-03-06T03:22:41;6.20;64.10
8422;DHT22;4248;48.196;10.924;2024-03-06T03:25:08;6.20;64.10
8422;DHT22;4248;48.196;10.924;2024-03-06T03:27:34;6.20;64.10
8422;DHT22;4248;48.196;10.924;2024-03-06T03:30:00;6.20;63.90
8422;DHT22;4248;48.196;10.924;2024-03-06T03:32:26;6.30;64.00
8422;DHT22;4248;48.196;10.924;2024-03-06T03:34:51;6.20;64.10
8422;DHT22;4248;48.196;10.924;2024-03-06T03:37:17;6.20;64.40
8422;DHT22;4248;48.196;10.924;2024-03-06T03:39:45;6.10;64.30
8422;DHT22;4248;48.196;10.924;2024-03-06T03:42:11;6.20;64.30
8422;DHT22;4248;48.196;10.924;2024-03-06T03:44:36;6.20;64.40
8422;DHT22;4248;48.196;10.924;2024-03-06T03:47:02;6.20;64.20
8422;DHT22;4248;48.196;10.924;2024-03-06T03:49:28;6.20;64.20
8422;DHT22;4248;48.196;10.924;2024-03-06T03:51:53;6.20;64.30
8422;DHT22;4248;48.196;10.924;2024-03-06T03:54:19;6.20;64.30
8422;DHT22;4248;48.196;10.924;2024-03-06T03:56:44;6.30;64.20
8422;DHT22;4248;48.196;10.924;2024-03-06T03:59:10;6.30;64.00
8422;DHT22;4248;48.196;10.924;2024-03-06T04:01:35;6.30;63.80
8422;DHT22;4248;48.196;10.924;2024-03-06T04:04:01;6.30;63.80
8422;DHT22;4248;48.196;10.924;2024-03-06T04:06:26;6.30;63.90
8422;DHT22;4248;48.196;10.924;2024-03-06T04:08:52;6.30;64.10
8422;DHT22;4248;48.196;10.924;2024-03-06T04:11:18;6.30;64.00
8422;DHT22;4248;48.196;10.924;2024-03-06T04:13:43;6.30;63.90
8422;DHT22;4248;48.196;10.924;2024-03-06T04:16:09;6.40;64.00
8422;DHT22;4248;48.196;10.924;2024-03-06T04:18:34;6.30;63.90
8422;DHT22;4248;48.196;10.924;2024-03-06T04:21:07;6.30;64.10
8422;DHT22;4248;48.196;10.924;2024-03-06T04:23:34;6.30;64.10
8422;DHT22;4248;48.196;10.924;2024-03-06T04:26:01;6.30;64.00
8422;DHT22;4248;48.196;10.924;2024-03-06T04:28:26;6.30;63.90
8422;DHT22;4248;48.196;10.924;2024-03-06T04:30:52;6.40;63.70
8422;DHT22;4248;48.196;10.924;2024-03-06T04:33:18;6.40;63.70
8422;DHT22;4248;48.196;10.924;2024-03-06T04:35:43;6.40;63.70
8422;DHT22;4248;48.196;10.924;2024-03-06T04:38:09;6.40;63.90
8422;DHT22;4248;48.196;10.924;2024-03-06T04:40:34;6.30;63.90
8422;DHT22;4248;48.196;10.924;2024-03-06T04:43:03;6.30;63.70
8422;DHT22;4248;48.196;10.924;2024-03-06T04:45:28;6.50;63.50
8422;DHT22;4248;48.196;10.924;2024-03-06T04:47:55;6.50;63.30
8422;DHT22;4248;48.196;10.924;2024-03-06T04:50:20;6.50;63.20
8422;DHT22;4248;48.196;10.924;2024-03-06T04:52:46;6.50;63.50
8422;DHT22;4248;48.196;10.924;2024-03-06T04:55:12;6.50;63.60
8422;DHT22;4248;48.196;10.924;2024-03-06T04:57:42;6.50;63.50
8422;DHT22;4248;48.196;10.924;2024-03-06T05:00:09;6.60;63.30
8422;DHT22;4248;48.196;10.924;2024-03-06T05:02:35;6.60;63.30
8422;DHT22;4248;48.196;10.924;2024-03-06T05:05:02;6.60;63.30
8422;DHT22;4248;48.196;10.924;2024-03-06T05:07:28;6.60;63.40
8422;DHT22;4248;48.196;10.924;2024-03-06T05:09:54;6.50;63.50
8422;DHT22;4248;48.196;10.924;2024-03-06T05:12:20;6.50;64.00
8422;DHT22;4248;48.196;10.924;2024-03-06T05:14:46;6.40;64.10
8422;DHT22;4248;48.196;10.924;2024-03-06T05:17:11;6.60;63.90
8422;DHT22;4248;48.196;10.924;2024-03-06T05:19:37;6.60;63.80
8422;DHT22;4248;48.196;10.924;2024-03-06T05:22:03;6.60;63.70
8422;DHT22;4248;48.196;10.924;2024-03-06T05:24:29;6.70;63.50
8422;DHT22;4248;48.196;10.924;2024-03-06T05:26:55;6.70;63.20
8422;DHT22;4248;48.196;10.924;2024-03-06T05:29:20;6.60;63.40
8422;DHT22;4248;48.196;10.924;2024-03-06T05:31:46;6.60;63.80
8422;DHT22;4248;48.196;10.924;2024-03-06T05:34:11;6.60;63.80
8422;DHT22;4248;48.196;10.924;2024-03-06T05:36:37;6.50;64.00
8422;DHT22;4248;48.196;10.924;2024-03-06T05:39:02;6.50;64.30
8422;DHT22;4248;48.196;10.924;2024-03-06T05:41:33;6.60;64.30
8422;DHT22;4248;48.196;10.924;2024-03-06T05:43:58;6.70;63.80
8422;DHT22;4248;48.196;10.924;2024-03-06T05:46:24;6.80;63.40
8422;DHT22;4248;48.196;10.924;2024-03-06T05:48:49;6.80;63.50
8422;DHT22;4248;48.196;10.924;2024-03-06T05:51:16;6.80;63.60
8422;DHT22;4248;48.196;10.924;2024-03-06T05:53:42;6.80;63.50
8422;DHT22;4248;48.196;10.924;2024-03-06T05:56:09;6.80;63.50
8422;DHT22;4248;48.196;10.924;2024-03-06T05:58:34;6.80;63.20
8422;DHT22;4248;48.196;10.924;2024-03-06T06:01:00;6.80;63.20
8422;DHT22;4248;48.196;10.924;2024-03-06T06:03:29;6.90;63.10
8422;DHT22;4248;48.196;10.924;2024-03-06T06:05:56;6.90;62.70
8422;DHT22;4248;48.196;10.924;2024-03-06T06:08:22;6.90;63.00
8422;DHT22;4248;48.196;10.924;2024-03-06T06:10:47;6.90;63.10
8422;DHT22;4248;48.196;10.924;2024-03-06T06:13:13;6.90;63.50
8422;DHT22;4248;48.196;10.924;2024-03-06T06:15:40;6.90;63.40
8422;DHT22;4248;48.196;10.924;2024-03-06T06:18:05;6.90;63.70
8422;DHT22;4248;48.196;10.924;2024-03-06T06:20:31;6.90;63.90
8422;DHT22;4248;48.196;10.924;2024-03-06T06:22:56;6.90;63.80
8422;DHT22;4248;48.196;10.924;2024-03-06T06:25:22;7.00;63.50
8422;DHT22;4248;48.196;10.924;2024-03-06T06:27:48;7.00;63.50
8422;DHT22;4248;48.196;10.924;2024-03-06T06:30:15;6.90;63.60
8422;DHT22;4248;48.196;10.924;2024-03-06T06:32:41;7.00;63.30
8422;DHT22;4248;48.196;10.924;2024-03-06T06:35:08;7.00;63.30
8422;DHT22;4248;48.196;10.924;2024-03-06T06:37:34;7.00;63.60
8422;DHT22;4248;48.196;10.924;2024-03-06T06:40:00;7.10;63.60
8422;DHT22;4248;48.196;10.924;2024-03-06T06:42:30;7.00;63.70
8422;DHT22;4248;48.196;10.924;2024-03-06T06:44:56;7.00;64.00
8422;DHT22;4248;48.196;10.924;2024-03-06T06:47:21;6.90;64.30
8422;DHT22;4248;48.196;10.924;2024-03-06T06:49:47;6.80;64.70
8422;DHT22;4248;48.196;10.924;2024-03-06T06:52:12;6.90;64.60
8422;DHT22;4248;48.196;10.924;2024-03-06T06:54:38;7.00;64.40
8422;DHT22;4248;48.196;10.924;2024-03-06T06:57:03;7.00;64.10
8422;DHT22;4248;48.196;10.924;2024-03-06T06:59:29;7.00;63.90
8422;DHT22;4248;48.196;10.924;2024-03-06T07:01:55;7.00;64.10
8422;DHT22;4248;48.196;10.924;2024-03-06T07:04:20;7.00;64.40
8422;DHT22;4248;48.196;10.924;2024-03-06T07:06:47;7.00;64.50
8422;DHT22;4248;48.196;10.924;2024-03-06T07:09:13;6.90;64.70
8422;DHT22;4248;48.196;10.924;2024-03-06T07:11:41;6.90;64.60
8422;DHT22;4248;48.196;10.924;2024-03-06T07:14:08;6.90;64.90
8422;DHT22;4248;48.196;10.924;2024-03-06T07:16:33;6.90;64.80
8422;DHT22;4248;48.196;10.924;2024-03-06T07:18:59;7.00;64.90
8422;DHT22;4248;48.196;10.924;2024-03-06T07:21:25;6.90;65.10
8422;DHT22;4248;48.196;10.924;2024-03-06T07:23:51;6.90;65.20
8422;DHT22;4248;48.196;10.924;2024-03-06T07:26:16;6.90;65.20
8422;DHT22;4248;48.196;10.924;2024-03-06T07:28:42;7.00;65.00
8422;DHT22;4248;48.196;10.924;2024-03-06T07:31:07;7.00;64.90
8422;DHT22;4248;48.196;10.924;2024-03-06T07:33:33;7.00;64.90
8422;DHT22;4248;48.196;10.924;2024-03-06T07:35:59;7.10;64.90
8422;DHT22;4248;48.196;10.924;2024-03-06T07:38:25;7.10;64.80
8422;DHT22;4248;48.196;10.924;2024-03-06T07:40:51;7.20;64.70
8422;DHT22;4248;48.196;10.924;2024-03-06T07:43:16;7.30;64.60
8422;DHT22;4248;48.196;10.924;2024-03-06T07:45:42;7.30;64.50
8422;DHT22;4248;48.196;10.924;2024-03-06T07:48:07;7.30;64.60
8422;DHT22;4248;48.196;10.924;2024-03-06T07:50:35;7.20;64.70
8422;DHT22;4248;48.196;10.924;2024-03-06T07:53:00;7.20;65.00
8422;DHT22;4248;48.196;10.924;2024-03-06T07:55:27;7.30;65.00
8422;DHT22;4248;48.196;10.924;2024-03-06T07:57:53;7.30;64.80
8422;DHT22;4248;48.196;10.924;2024-03-06T08:00:19;7.30;64.90
8422;DHT22;4248;48.196;10.924;2024-03-06T08:02:45;7.30;64.90
8422;DHT22;4248;48.196;10.924;2024-03-06T08:05:15;7.30;65.00
8422;DHT22;4248;48.196;10.924;2024-03-06T08:07:42;7.40;64.80
8422;DHT22;4248;48.196;10.924;2024-03-06T08:10:11;7.40;65.00
8422;DHT22;4248;48.196;10.924;2024-03-06T08:12:41;7.40;64.80
8422;DHT22;4248;48.196;10.924;2024-03-06T08:15:11;7.40;64.90
8422;DHT22;4248;48.196;10.924;2024-03-06T08:17:43;7.40;64.80
8422;DHT22;4248;48.196;10.924;2024-03-06T08:20:09;7.50;65.00
8422;DHT22;4248;48.196;10.924;2024-03-06T08:22:37;7.50;64.90
8422;DHT22;4248;48.196;10.924;2024-03-06T08:25:07;7.60;65.10
8422;DHT22;4248;48.196;10.924;2024-03-06T08:27:34;7.60;65.00
8422;DHT22;4248;48.196;10.924;2024-03-06T08:30:00;7.70;65.00
8422;DHT22;4248;48.196;10.924;2024-03-06T08:32:26;7.70;65.20
8422;DHT22;4248;48.196;10.924;2024-03-06T08:34:53;7.70;65.30
8422;DHT22;4248;48.196;10.924;2024-03-06T08:37:18;7.70;65.30
8422;DHT22;4248;48.196;10.924;2024-03-06T08:39:44;7.90;65.20
8422;DHT22;4248;48.196;10.924;2024-03-06T08:42:10;8.00;64.80
8422;DHT22;4248;48.196;10.924;2024-03-06T08:44:37;8.10;64.90
8422;DHT22;4248;48.196;10.924;2024-03-06T08:47:03;8.20;64.60
8422;DHT22;4248;48.196;10.924;2024-03-06T08:49:29;8.10;64.70
8422;DHT22;4248;48.196;10.924;2024-03-06T08:51:54;8.20;64.60
8422;DHT22;4248;48.196;10.924;2024-03-06T08:54:20;8.20;64.70
8422;DHT22;4248;48.196;10.924;2024-03-06T08:56:46;8.30;64.50
8422;DHT22;4248;48.196;10.924;2024-03-06T08:59:11;8.20;64.50
8422;DHT22;4248;48.196;10.924;2024-03-06T09:01:37;8.10;65.00
8422;DHT22;4248;48.196;10.924;2024-03-06T09:04:02;8.00;65.10
8422;DHT22;4248;48.196;10.924;2024-03-06T09:06:28;8.00;65.40
8422;DHT22;4248;48.196;10.924;2024-03-06T09:08:53;8.00;65.40
8422;DHT22;4248;48.196;10.924;2024-03-06T09:11:19;7.90;65.50
8422;DHT22;4248;48.196;10.924;2024-03-06T09:13:44;7.80;65.70
8422;DHT22;4248;48.196;10.924;2024-03-06T09:16:10;7.80;65.60
8422;DHT22;4248;48.196;10.924;2024-03-06T09:18:35;7.80;65.50
8422;DHT22;4248;48.196;10.924;2024-03-06T09:21:01;7.80;65.30
8422;DHT22;4248;48.196;10.924;2024-03-06T09:23:27;7.90;65.20
8422;DHT22;4248;48.196;10.924;2024-03-06T09:25:55;7.90;65.10
8422;DHT22;4248;48.196;10.924;2024-03-06T09:28:20;8.00;65.20
8422;DHT22;4248;48.196;10.924;2024-03-06T09:30:46;8.00;65.10
8422;DHT22;4248;48.196;10.924;2024-03-06T09:33:12;8.00;64.90
8422;DHT22;4248;48.196;10.924;2024-03-06T09:35:38;8.00;65.20
8422;DHT22;4248;48.196;10.924;2024-03-06T09:38:03;8.00;65.10
8422;DHT22;4248;48.196;10.924;2024-03-06T09:40:29;8.20;64.70
8422;DHT22;4248;48.196;10.924;2024-03-06T09:42:56;8.40;64.10
8422;DHT22;4248;48.196;10.924;2024-03-06T09:45:23;8.60;64.20
8422;DHT22;4248;48.196;10.924;2024-03-06T09:47:49;8.70;64.30
8422;DHT22;4248;48.196;10.924;2024-03-06T09:50:17;8.70;64.30
8422;DHT22;4248;48.196;10.924;2024-03-06T09:52:48;8.60;64.20
8422;DHT22;4248;48.196;10.924;2024-03-06T09:55:17;8.60;64.40
8422;DHT22;4248;48.196;10.924;2024-03-06T09:57:43;8.70;64.30
8422;DHT22;4248;48.196;10.924;2024-03-06T10:00:09;8.70;64.30
8422;DHT22;4248;48.196;10.924;2024-03-06T10:02:38;8.70;64.30
8422;DHT22;4248;48.196;10.924;2024-03-06T10:05:04;8.60;64.20
8422;DHT22;4248;48.196;10.924;2024-03-06T10:07:31;8.70;64.30
8422;DHT22;4248;48.196;10.924;2024-03-06T10:09:57;8.80;64.00
8422;DHT22;4248;48.196;10.924;2024-03-06T10:12:22;8.70;64.40
8422;DHT22;4248;48.196;10.924;2024-03-06T10:14:51;8.70;64.30
8422;DHT22;4248;48.196;10.924;2024-03-06T10:17:21;8.70;64.40
8422;DHT22;4248;48.196;10.924;2024-03-06T10:19:52;8.60;64.20
8422;DHT22;4248;48.196;10.924;2024-03-06T10:22:21;8.70;64.30
8422;DHT22;4248;48.196;10.924;2024-03-06T10:24:49;8.60;64.20
8422;DHT22;4248;48.196;10.924;2024-03-06T10:27:16;8.50;64.10
8422;DHT22;4248;48.196;10.924;2024-03-06T10:29:44;8.60;64.20
8422;DHT22;4248;48.196;10.924;2024-03-06T10:32:10;8.70;63.90
8422;DHT22;4248;48.196;10.924;2024-03-06T10:34:37;8.80;63.50
8422;DHT22;4248;48.196;10.924;2024-03-06T10:37:03;8.90;63.30
8422;DHT22;4248;48.196;10.924;2024-03-06T10:39:30;8.90;62.90
8422;DHT22;4248;48.196;10.924;2024-03-06T10:41:59;9.00;62.80
8422;DHT22;4248;48.196;10.924;2024-03-06T10:44:27;9.00;62.50
8422;DHT22;4248;48.196;10.924;2024-03-06T10:46:59;9.10;62.60
8422;DHT22;4248;48.196;10.924;2024-03-06T10:49:29;9.30;63.40
8422;DHT22;4248;48.196;10.924;2024-03-06T10:51:59;9.40;61.30
8422;DHT22;4248;48.196;10.924;2024-03-06T10:54:29;9.70;60.90
8422;DHT22;4248;48.196;10.924;2024-03-06T10:56:56;9.90;60.20
8422;DHT22;4248;48.196;10.924;2024-03-06T10:59:24;9.80;60.00
8422;DHT22;4248;48.196;10.924;2024-03-06T11:01:55;9.70;60.40
8422;DHT22;4248;48.196;10.924;2024-03-06T11:04:30;9.80;60.10
8422;DHT22;4248;48.196;10.924;2024-03-06T11:07:03;9.80;59.90
8422;DHT22;4248;48.196;10.924;2024-03-06T11:09:34;9.80;59.90
8422;DHT22;4248;48.196;10.924;2024-03-06T11:12:04;9.70;60.10
8422;DHT22;4248;48.196;10.924;2024-03-06T11:14:32;9.60;60.10
8422;DHT22;4248;48.196;10.924;2024-03-06T11:17:04;9.60;60.50
8422;DHT22;4248;48.196;10.924;2024-03-06T11:19:31;9.50;61.60
8422;DHT22;4248;48.196;10.924;2024-03-06T11:21:57;9.50;60.40
8422;DHT22;4248;48.196;10.924;2024-03-06T11:24:32;9.50;60.00
8422;DHT22;4248;48.196;10.924;2024-03-06T11:27:02;9.50;60.00
8422;DHT22;4248;48.196;10.924;2024-03-06T11:33:00;9.60;58.90
8422;DHT22;4248;48.196;10.924;2024-03-06T11:35:29;9.60;59.20
8422;DHT22;4248;48.196;10.924;2024-03-06T11:37:55;9.70;59.00
8422;DHT22;4248;48.196;10.924;2024-03-06T11:40:25;9.70;59.10
8422;DHT22;4248;48.196;10.924;2024-03-06T11:42:51;9.60;58.50
8422;DHT22;4248;48.196;10.924;2024-03-06T11:45:18;9.50;58.20
8422;DHT22;4248;48.196;10.924;2024-03-06T11:48:16;9.60;59.70
8422;DHT22;4248;48.196;10.924;2024-03-06T11:50:42;9.80;57.70
8422;DHT22;4248;48.196;10.924;2024-03-06T11:53:08;10.00;56.10
8422;DHT22;4248;48.196;10.924;2024-03-06T11:55:34;10.00;55.30
8422;DHT22;4248;48.196;10.924;2024-03-06T11:57:59;9.90;56.10
8422;DHT22;4248;48.196;10.924;2024-03-06T12:00:25;9.60;56.40
8422;DHT22;4248;48.196;10.924;2024-03-06T12:02:51;9.40;56.60
8422;DHT22;4248;48.196;10.924;2024-03-06T12:05:17;9.20;57.00
8422;DHT22;4248;48.196;10.924;2024-03-06T12:10:12;8.90;57.10
8422;DHT22;4248;48.196;10.924;2024-03-06T12:12:37;8.80;57.20
8422;DHT22;4248;48.196;10.924;2024-03-06T12:15:09;9.00;56.90
8422;DHT22;4248;48.196;10.924;2024-03-06T12:17:43;9.20;55.90
8422;DHT22;4248;48.196;10.924;2024-03-06T12:20:12;9.30;55.50
8422;DHT22;4248;48.196;10.924;2024-03-06T12:22:54;9.40;55.20
8422;DHT22;4248;48.196;10.924;2024-03-06T12:25:22;9.40;54.70
8422;DHT22;4248;48.196;10.924;2024-03-06T12:27:49;9.30;54.90
8422;DHT22;4248;48.196;10.924;2024-03-06T12:30:19;9.20;55.10
8422;DHT22;4248;48.196;10.924;2024-03-06T12:32:56;9.20;55.10
8422;DHT22;4248;48.196;10.924;2024-03-06T12:35:26;9.20;55.40
8422;DHT22;4248;48.196;10.924;2024-03-06T12:37:52;9.10;55.50
8422;DHT22;4248;48.196;10.924;2024-03-06T12:40:19;9.10;55.50
8422;DHT22;4248;48.196;10.924;2024-03-06T12:42:44;9.20;55.50
8422;DHT22;4248;48.196;10.924;2024-03-06T12:45:11;9.10;55.50
8422;DHT22;4248;48.196;10.924;2024-03-06T12:47:43;9.10;55.70
8422;DHT22;4248;48.196;10.924;2024-03-06T12:50:11;9.00;55.50
8422;DHT22;4248;48.196;10.924;2024-03-06T12:52:40;8.90;55.80
8422;DHT22;4248;48.196;10.924;2024-03-06T12:55:06;8.80;56.10
8422;DHT22;4248;48.196;10.924;2024-03-06T12:57:33;8.80;56.00
8422;DHT22;4248;48.196;10.924;2024-03-06T12:59:58;8.90;56.00
8422;DHT22;4248;48.196;10.924;2024-03-06T13:02:24;8.80;55.90
8422;DHT22;4248;48.196;10.924;2024-03-06T13:04:50;8.90;56.10
8422;DHT22;4248;48.196;10.924;2024-03-06T13:07:16;8.90;56.20
8422;DHT22;4248;48.196;10.924;2024-03-06T13:09:41;8.80;56.40
8422;DHT22;4248;48.196;10.924;2024-03-06T13:12:07;8.80;56.60
8422;DHT22;4248;48.196;10.924;2024-03-06T13:14:33;8.80;56.50
8422;DHT22;4248;48.196;10.924;2024-03-06T13:16:59;8.90;56.30
8422;DHT22;4248;48.196;10.924;2024-03-06T13:19:25;8.90;56.00
8422;DHT22;4248;48.196;10.924;2024-03-06T13:21:51;8.90;56.10
8422;DHT22;4248;48.196;10.924;2024-03-06T13:24:18;8.90;56.10
8422;DHT22;4248;48.196;10.924;2024-03-06T13:26:47;8.90;56.10
8422;DHT22;4248;48.196;10.924;2024-03-06T13:29:13;9.00;56.40
8422;DHT22;4248;48.196;10.924;2024-03-06T13:31:39;8.90;56.50
8422;DHT22;4248;48.196;10.924;2024-03-06T13:34:05;8.90;56.60
8422;DHT22;4248;48.196;10.924;2024-03-06T13:36:31;9.00;56.40
8422;DHT22;4248;48.196;10.924;2024-03-06T13:38:56;9.00;56.60
8422;DHT22;4248;48.196;10.924;2024-03-06T13:41:22;9.00;56.70
8422;DHT22;4248;48.196;10.924;2024-03-06T13:43:48;8.80;56.90
8422;DHT22;4248;48.196;10.924;2024-03-06T13:46:14;8.80;57.30
8422;DHT22;4248;48.196;10.924;2024-03-06T13:48:40;8.80;57.10
8422;DHT22;4248;48.196;10.924;2024-03-06T13:51:05;8.80;56.90
8422;DHT22;4248;48.196;10.924;2024-03-06T13:53:31;8.90;56.70
8422;DHT22;4248;48.196;10.924;2024-03-06T13:55:57;8.80;56.50
8422;DHT22;4248;48.196;10.924;2024-03-06T13:58:23;8.80;56.20
8422;DHT22;4248;48.196;10.924;2024-03-06T14:00:48;8.80;56.20
8422;DHT22;4248;48.196;10.924;2024-03-06T14:03:14;8.70;56.00
8422;DHT22;4248;48.196;10.924;2024-03-06T14:05:40;8.70;56.10
8422;DHT22;4248;48.196;10.924;2024-03-06T14:08:06;8.60;55.90
8422;DHT22;4248;48.196;10.924;2024-03-06T14:10:31;8.60;55.80
8422;DHT22;4248;48.196;10.924;2024-03-06T14:13:01;8.60;55.80
8422;DHT22;4248;48.196;10.924;2024-03-06T14:15:26;8.70;56.00
8422;DHT22;4248;48.196;10.924;2024-03-06T14:17:53;8.60;55.60
8422;DHT22;4248;48.196;10.924;2024-03-06T14:20:22;8.60;55.50
8422;DHT22;4248;48.196;10.924;2024-03-06T14:22:49;8.50;55.50
8422;DHT22;4248;48.196;10.924;2024-03-06T14:25:14;8.50;55.70
8422;DHT22;4248;48.196;10.924;2024-03-06T14:27:40;8.40;55.80
8422;DHT22;4248;48.196;10.924;2024-03-06T14:30:06;8.30;56.20
8422;DHT22;4248;48.196;10.924;2024-03-06T14:32:39;8.30;56.40
8422;DHT22;4248;48.196;10.924;2024-03-06T14:35:06;8.30;56.40
8422;DHT22;4248;48.196;10.924;2024-03-06T14:37:31;8.30;56.60
8422;DHT22;4248;48.196;10.924;2024-03-06T14:39:57;8.20;56.90
8422;DHT22;4248;48.196;10.924;2024-03-06T14:42:22;8.10;57.20
8422;DHT22;4248;48.196;10.924;2024-03-06T14:44:51;8.20;57.50
8422;DHT22;4248;48.196;10.924;2024-03-06T14:47:16;8.10;57.30
8422;DHT22;4248;48.196;10.924;2024-03-06T14:49:42;8.10;57.30
8422;DHT22;4248;48.196;10.924;2024-03-06T14:52:12;8.00;57.40
8422;DHT22;4248;48.196;10.924;2024-03-06T14:54:38;8.00;57.50
8422;DHT22;4248;48.196;10.924;2024-03-06T14:57:05;7.90;57.40
8422;DHT22;4248;48.196;10.924;2024-03-06T14:59:31;8.00;57.40
8422;DHT22;4248;48.196;10.924;2024-03-06T15:01:57;8.00;57.20
8422;DHT22;4248;48.196;10.924;2024-03-06T15:04:22;8.00;57.00
8422;DHT22;4248;48.196;10.924;2024-03-06T15:06:48;8.10;57.10
8422;DHT22;4248;48.196;10.924;2024-03-06T15:09:13;8.00;57.10
8422;DHT22;4248;48.196;10.924;2024-03-06T15:11:41;8.10;57.10
8422;DHT22;4248;48.196;10.924;2024-03-06T15:14:10;8.20;57.00
8422;DHT22;4248;48.196;10.924;2024-03-06T15:16:36;8.20;56.70
8422;DHT22;4248;48.196;10.924;2024-03-06T15:19:03;8.30;56.90
8422;DHT22;4248;48.196;10.924;2024-03-06T15:21:29;8.20;57.00
8422;DHT22;4248;48.196;10.924;2024-03-06T15:23:56;8.20;57.10
8422;DHT22;4248;48.196;10.924;2024-03-06T15:26:22;8.10;57.10
8422;DHT22;4248;48.196;10.924;2024-03-06T15:28:47;8.00;57.20
8422;DHT22;4248;48.196;10.924;2024-03-06T15:31:13;8.00;57.20
8422;DHT22;4248;48.196;10.924;2024-03-06T15:33:39;8.00;57.20
8422;DHT22;4248;48.196;10.924;2024-03-06T15:36:05;8.00;57.20
8422;DHT22;4248;48.196;10.924;2024-03-06T15:38:30;7.90;57.20
8422;DHT22;4248;48.196;10.924;2024-03-06T15:40:57;7.90;57.30
8422;DHT22;4248;48.196;10.924;2024-03-06T15:43:23;7.80;57.30
8422;DHT22;4248;48.196;10.924;2024-03-06T15:45:48;7.80;57.40
8422;DHT22;4248;48.196;10.924;2024-03-06T15:48:14;7.70;57.40
8422;DHT22;4248;48.196;10.924;2024-03-06T15:50:48;7.70;57.40
8422;DHT22;4248;48.196;10.924;2024-03-06T15:53:14;7.80;57.20
8422;DHT22;4248;48.196;10.924;2024-03-06T15:55:40;7.80;56.90
8422;DHT22;4248;48.196;10.924;2024-03-06T15:58:06;7.80;56.80
8422;DHT22;4248;48.196;10.924;2024-03-06T16:00:31;7.80;56.80
8422;DHT22;4248;48.196;10.924;2024-03-06T16:02:57;7.80;56.90